Time;durP1;ratioP1;P1;durP2;ratioP2;P2;SDS_P1;SDS_P2;PMS_P1;PMS_P2;Temp;Humidity;BMP_temperature;BMP_pressure;BME280_temperature;BME280_humidity;BME280_pressure;Samples;Min_cycle;Max_cycle;Signal;HPM_P1;HPM_P2
2021/12/22 00:00:10;;;;;;;11.63;7.65;;;;;;;12.07;77.37;101978.41;5084692;28;20048;-73
2021/12/22 00:02:45;;;;;;;15.60;10.07;;;;;;;12.05;77.51;101977.44;5068984;28;20047;-73
2021/12/22 00:05:16;;;;;;;18.00;7.88;;;;;;;12.03;77.48;101979.16;5067485;28;20110;-72
2021/12/22 00:07:43;;;;;;;12.80;6.68;;;;;;;12.03;77.29;101984.44;5075655;28;20048;-72
2021/12/22 00:10:12;;;;;;;7.70;5.00;;;;;;;11.99;77.27;101986.13;5067687;28;20075;-72
2021/12/22 00:12:40;;;;;;;10.35;5.68;;;;;;;11.98;77.03;101979.91;5067542;28;20470;-72
2021/12/22 00:15:10;;;;;;;8.40;5.65;;;;;;;12.04;76.94;101988.88;5084296;28;20040;-72
2021/12/22 00:17:38;;;;;;;11.30;7.03;;;;;;;12.02;76.83;101990.56;5067311;28;20044;-73
2021/12/22 00:20:07;;;;;;;11.93;7.57;;;;;;;12.02;76.79;101980.88;5067830;28;20075;-73
2021/12/22 00:22:35;;;;;;;16.00;6.03;;;;;;;12.04;76.74;101978.28;5068358;28;20118;-72
2021/12/22 00:25:04;;;;;;;18.33;13.15;;;;;;;12.00;76.52;101979.97;5054027;28;20135;-72
2021/12/22 00:27:31;;;;;;;10.98;6.13;;;;;;;11.90;76.69;101989.38;5067414;28;20123;-73
2021/12/22 00:29:59;;;;;;;9.88;5.55;;;;;;;11.91;76.67;101985.88;5066910;28;20071;-73
2021/12/22 00:32:30;;;;;;;8.90;4.90;;;;;;;11.96;76.69;101992.19;5066506;28;20033;-73
2021/12/22 00:34:58;;;;;;;10.55;9.15;;;;;;;11.99;76.62;101994.06;5068413;28;20044;-73
2021/12/22 00:37:33;;;;;;;6.72;3.65;;;;;;;11.97;76.51;101991.34;5068976;28;20043;-73
2021/12/22 00:40:01;;;;;;;6.40;3.88;;;;;;;11.92;76.67;101992.97;5069117;28;20045;-73
2021/12/22 00:42:29;;;;;;;6.22;3.20;;;;;;;11.92;76.59;101998.25;5067471;28;20070;-73
2021/12/22 00:44:57;;;;;;;7.35;3.90;;;;;;;11.89;76.54;101992.88;5084421;28;20036;-73
2021/12/22 00:47:31;;;;;;;7.40;4.15;;;;;;;11.92;76.48;101998.25;5071167;28;20064;-73
2021/12/22 00:49:59;;;;;;;8.63;4.57;;;;;;;11.91;76.48;102003.50;5072169;28;20512;-72
2021/12/22 00:52:28;;;;;;;9.68;4.97;;;;;;;11.86;76.68;101997.19;5072383;28;20116;-73
2021/12/22 00:54:55;;;;;;;7.53;3.40;;;;;;;11.77;76.66;101996.88;5054943;28;20052;-73
2021/12/22 00:57:23;;;;;;;7.47;3.75;;;;;;;11.63;76.75;101991.13;5085558;28;20115;-73
2021/12/22 00:59:51;;;;;;;5.35;3.17;;;;;;;11.55;76.80;102000.63;5053726;28;20040;-73
2021/12/22 01:02:21;;;;;;;8.00;4.30;;;;;;;11.49;76.82;101996.00;5070993;28;20124;-74
2021/12/22 01:04:50;;;;;;;7.60;3.65;;;;;;;11.49;76.88;101992.44;5072534;28;20049;-73
2021/12/22 01:07:18;;;;;;;7.85;3.60;;;;;;;11.51;76.94;102004.88;5072749;28;20110;-72
2021/12/22 01:09:46;;;;;;;8.45;4.47;;;;;;;11.54;76.82;101998.81;5072696;28;20072;-73
2021/12/22 01:12:14;;;;;;;8.05;4.47;;;;;;;11.59;76.72;101998.09;5087105;28;20105;-73
2021/12/22 01:14:43;;;;;;;7.90;4.50;;;;;;;11.60;76.74;101999.00;5072272;28;20454;-73
2021/12/22 01:17:14;;;;;;;7.10;4.43;;;;;;;11.60;76.67;101993.72;5071175;28;20684;-73
2021/12/22 01:19:48;;;;;;;5.57;3.40;;;;;;;11.61;76.64;101994.59;5072069;28;20476;-73
2021/12/22 01:22:28;;;;;;;6.40;3.70;;;;;;;11.56;76.67;101991.81;5069045;28;20040;-73
2021/12/22 01:25:02;;;;;;;7.65;3.65;;;;;;;11.46;76.72;101990.63;5086757;28;20053;-73
2021/12/22 01:27:34;;;;;;;7.53;3.83;;;;;;;11.41;76.71;101986.94;5072619;28;20399;-73
2021/12/22 01:30:03;;;;;;;8.23;4.03;;;;;;;11.39;76.77;101987.72;5071886;28;20040;-72
2021/12/22 01:32:31;;;;;;;10.32;5.60;;;;;;;11.42;76.69;101991.34;5087220;28;20118;-73
2021/12/22 01:34:58;;;;;;;6.47;4.35;;;;;;;11.45;76.48;101978.25;5071937;28;20054;-73
2021/12/22 01:37:28;;;;;;;7.75;4.15;;;;;;;11.49;76.47;101989.81;5041509;28;20043;-73
2021/12/22 01:39:56;;;;;;;7.20;4.43;;;;;;;11.48;76.41;101978.38;5070495;28;20060;-73
2021/12/22 01:42:24;;;;;;;6.03;3.90;;;;;;;11.45;76.44;101982.63;5087642;28;20064;-72
2021/12/22 01:45:13;;;;;;;5.50;3.80;;;;;;;11.47;76.37;101981.84;5087128;28;20461;-73
2021/12/22 01:50:35;;;;;;;7.25;3.45;;;;;;;11.49;76.47;101981.88;5050178;28;20041;-73
2021/12/22 01:53:08;;;;;;;7.18;3.63;;;;;;;11.49;76.50;101984.53;5073085;28;20134;-73
2021/12/22 01:55:38;;;;;;;9.10;4.22;;;;;;;11.51;76.54;101980.19;5083482;28;20554;-72
2021/12/22 01:58:12;;;;;;;6.70;3.38;;;;;;;11.49;76.66;101976.59;5070641;28;20072;-73
2021/12/22 02:00:40;;;;;;;6.03;3.50;;;;;;;11.47;76.70;101975.66;5069794;28;20052;-72
2021/12/22 02:03:07;;;;;;;5.78;3.33;;;;;;;11.45;76.75;101975.59;5070404;28;20044;-73
2021/12/22 02:05:35;;;;;;;8.07;3.35;;;;;;;11.44;76.68;101976.44;5071364;28;20090;-72
2021/12/22 02:08:07;;;;;;;7.43;3.30;;;;;;;11.39;76.85;101971.88;5070165;28;20052;-73
2021/12/22 02:10:46;;;;;;;7.28;3.90;;;;;;;11.36;76.86;101971.75;5069987;28;20401;-72
2021/12/22 02:13:16;;;;;;;8.35;3.42;;;;;;;11.34;76.86;101970.84;5069892;28;20051;-73
2021/12/22 02:15:45;;;;;;;6.28;3.17;;;;;;;11.35;77.06;101965.59;5070594;28;20046;-73
2021/12/22 02:18:17;;;;;;;8.15;3.05;;;;;;;11.38;76.98;101963.03;5070016;28;20040;-73
2021/12/22 02:20:47;;;;;;;12.40;7.00;;;;;;;11.46;76.93;101968.56;5071339;28;20153;-73
2021/12/22 02:23:15;;;;;;;8.02;4.38;;;;;;;11.52;76.81;101968.75;5068615;28;20037;-73
2021/12/22 02:25:48;;;;;;;8.05;5.45;;;;;;;11.56;76.67;101975.94;5070613;28;20099;-72
2021/12/22 02:28:21;;;;;;;9.38;4.82;;;;;;;11.61;76.63;101973.44;5069720;28;20084;-73
2021/12/22 02:30:50;;;;;;;8.80;3.58;;;;;;;11.66;76.43;101971.84;5071222;28;20127;-72
2021/12/22 02:33:23;;;;;;;7.18;3.40;;;;;;;11.62;76.35;101960.25;5069684;28;20040;-73
2021/12/22 02:36:07;;;;;;;7.50;3.40;;;;;;;11.64;76.33;101963.84;5070817;28;20044;-72
2021/12/22 02:38:37;;;;;;;6.70;3.30;;;;;;;11.60;76.55;101959.31;5067406;28;20553;-73
2021/12/22 02:41:07;;;;;;;6.10;3.50;;;;;;;11.56;76.29;101960.06;5069578;28;20115;-72
2021/12/22 02:43:42;;;;;;;5.65;3.15;;;;;;;11.49;76.19;101960.72;5069840;28;20408;-73
2021/12/22 02:46:09;;;;;;;9.70;3.88;;;;;;;11.47;76.36;101954.50;5070366;28;20094;-73
2021/12/22 02:48:37;;;;;;;9.40;3.85;;;;;;;11.52;76.27;101964.38;5069596;28;20036;-73
2021/12/22 02:51:06;;;;;;;10.27;5.80;;;;;;;11.48;76.28;101958.97;5068653;28;20041;-73
2021/12/22 02:53:42;;;;;;;13.27;6.60;;;;;;;11.47;76.53;101959.78;5068812;28;20032;-73
2021/12/22 02:56:25;;;;;;;9.80;4.75;;;;;;;11.53;76.65;101958.25;5070094;28;20101;-72
2021/12/22 02:59:15;;;;;;;7.32;3.75;;;;;;;11.59;76.43;101960.16;5071445;28;20052;-73
2021/12/22 03:04:32;;;;;;;9.43;3.92;;;;;;;11.67;76.18;101957.75;5076232;28;20044;-73
2021/12/22 03:07:05;;;;;;;9.18;5.07;;;;;;;11.68;76.11;101963.13;5086081;28;20139;-73
2021/12/22 03:09:37;;;;;;;15.55;7.65;;;;;;;11.69;76.17;101962.22;5067671;28;20048;-73
2021/12/22 03:12:08;;;;;;;7.38;4.88;;;;;;;11.69;76.33;101962.22;5069847;28;20040;-73
2021/12/22 03:14:35;;;;;;;8.50;5.10;;;;;;;11.67;76.39;101958.66;5085566;28;20040;-73
2021/12/22 03:17:03;;;;;;;6.32;4.35;;;;;;;11.68;76.50;101964.84;5085610;28;20045;-73
2021/12/22 03:19:34;;;;;;;7.00;4.90;;;;;;;11.69;76.54;101964.88;5069607;28;20497;-73
2021/12/22 03:22:09;;;;;;;6.35;4.07;;;;;;;11.70;76.63;101966.69;5068544;28;20125;-73
2021/12/22 03:24:38;;;;;;;9.32;5.38;;;;;;;11.67;76.71;101968.34;5068738;28;20041;-73
2021/12/22 03:27:07;;;;;;;9.18;4.30;;;;;;;11.67;76.67;101965.69;5085185;28;20125;-73
2021/12/22 03:29:38;;;;;;;7.15;4.22;;;;;;;11.67;76.76;101968.34;5068208;28;20404;-73
2021/12/22 03:32:07;;;;;;;10.77;7.35;;;;;;;11.66;76.90;101961.25;5069219;28;20047;-73
2021/12/22 03:34:35;;;;;;;16.58;13.05;;;;;;;11.66;76.96;101978.03;5068177;28;20079;-73
2021/12/22 03:37:05;;;;;;;7.90;5.30;;;;;;;11.62;77.22;101980.53;5068323;28;20119;-73
2021/12/22 03:39:33;;;;;;;7.28;4.00;;;;;;;11.57;77.45;101977.72;5068019;28;20044;-73
2021/12/22 03:42:01;;;;;;;7.70;3.80;;;;;;;11.53;77.49;101979.41;5069536;28;20040;-73
2021/12/22 03:44:29;;;;;;;6.28;3.70;;;;;;;11.50;77.49;101974.00;5084762;28;20063;-73
2021/12/22 03:46:59;;;;;;;7.57;3.88;;;;;;;11.44;77.33;101980.84;5050756;28;20052;-73
2021/12/22 03:49:28;;;;;;;5.68;3.40;;;;;;;11.41;77.41;101976.38;5052200;28;20036;-73
2021/12/22 03:51:56;;;;;;;9.25;4.18;;;;;;;11.39;77.30;101977.16;5069474;28;20037;-73
2021/12/22 03:54:25;;;;;;;9.40;4.22;;;;;;;11.39;77.25;101983.34;5067456;28;20460;-72
2021/12/22 03:56:53;;;;;;;9.10;5.10;;;;;;;11.36;77.10;101993.81;5085354;28;20119;-73
2021/12/22 03:59:21;;;;;;;9.95;5.53;;;;;;;11.37;77.14;101982.38;5068991;28;20064;-73
2021/12/22 04:01:49;;;;;;;14.70;8.85;;;;;;;11.41;77.04;101993.97;5069386;28;20143;-73
2021/12/22 04:04:18;;;;;;;15.18;10.52;;;;;;;11.42;76.96;101996.66;5067907;28;20116;-73
2021/12/22 04:06:46;;;;;;;15.75;9.75;;;;;;;11.40;77.23;101995.72;5069133;28;20116;-73
2021/12/22 04:09:16;;;;;;;6.78;4.30;;;;;;;11.44;77.39;101994.06;5067083;28;20123;-73
2021/12/22 04:11:46;;;;;;;6.38;3.70;;;;;;;11.45;77.66;102004.69;5067953;28;20065;-73
2021/12/22 04:14:13;;;;;;;7.97;4.07;;;;;;;11.42;77.58;101998.44;5068430;28;20047;-73
2021/12/22 04:16:41;;;;;;;8.90;3.58;;;;;;;11.40;77.59;102000.13;5084541;28;20044;-73
2021/12/22 04:19:08;;;;;;;9.25;3.63;;;;;;;11.35;77.68;101996.44;5068792;28;21638;-73
2021/12/22 04:21:36;;;;;;;5.43;3.00;;;;;;;11.22;77.71;101999.53;5084097;28;20115;-73
2021/12/22 04:24:06;;;;;;;9.40;4.00;;;;;;;11.13;77.95;102000.09;5069222;28;20040;-73
2021/12/22 04:26:34;;;;;;;6.90;3.83;;;;;;;11.06;78.18;102001.66;5069367;28;20044;-73
2021/12/22 04:29:04;;;;;;;9.55;4.20;;;;;;;11.11;78.12;102004.44;5068265;28;20054;-73
2021/12/22 04:31:33;;;;;;;8.43;4.05;;;;;;;11.11;77.99;102004.44;5067558;28;20284;-73
2021/12/22 04:34:21;;;;;;;9.43;4.38;;;;;;;11.11;77.76;102005.34;5065604;28;20519;-74
2021/12/22 04:36:49;;;;;;;9.52;4.80;;;;;;;11.11;77.69;102004.44;5067703;28;20693;-73
2021/12/22 04:39:17;;;;;;;7.93;4.15;;;;;;;11.13;77.60;102006.28;5069192;28;20048;-74
2021/12/22 04:41:44;;;;;;;9.43;4.13;;;;;;;11.08;77.73;102002.59;5050835;28;20115;-73
2021/12/22 04:44:13;;;;;;;8.10;3.90;;;;;;;11.05;77.72;102007.78;5068316;28;20094;-73
2021/12/22 04:46:41;;;;;;;9.65;4.28;;;;;;;10.97;77.89;102017.19;5068829;28;20040;-73
2021/12/22 04:49:08;;;;;;;10.43;4.20;;;;;;;10.97;77.97;102011.00;5068483;28;20554;-73
2021/12/22 04:51:37;;;;;;;6.50;4.55;;;;;;;10.99;77.96;102020.78;5067465;28;20039;-72
2021/12/22 04:54:15;;;;;;;17.45;15.70;;;;;;;11.02;77.79;102025.28;5067892;28;20044;-73
2021/12/22 04:56:43;;;;;;;37.70;33.70;;;;;;;11.00;77.60;102024.31;5084417;28;20045;-73
2021/12/22 04:59:11;;;;;;;37.85;34.25;;;;;;;10.93;77.59;102028.50;5049489;28;20041;-73
2021/12/22 05:01:40;;;;;;;37.58;33.78;;;;;;;10.92;77.98;102028.44;5066543;28;20036;-73
2021/12/22 05:04:07;;;;;;;12.60;8.85;;;;;;;10.89;78.20;102025.72;5065155;28;20056;-73
2021/12/22 05:06:35;;;;;;;10.02;7.30;;;;;;;10.91;78.06;102026.63;5068786;28;20548;-73
2021/12/22 05:09:03;;;;;;;8.07;4.95;;;;;;;10.88;77.95;102024.81;5067276;28;20041;-73
2021/12/22 05:11:31;;;;;;;8.00;4.25;;;;;;;10.85;77.83;102027.34;5068525;28;20050;-73
2021/12/22 05:13:58;;;;;;;9.25;4.80;;;;;;;10.76;77.77;102030.53;5068046;28;20068;-73
2021/12/22 05:16:27;;;;;;;8.55;4.82;;;;;;;10.74;77.62;102029.59;5068793;28;20051;-73
2021/12/22 05:18:59;;;;;;;10.85;6.00;;;;;;;10.75;77.95;102017.31;5083493;28;20516;-73
2021/12/22 05:21:27;;;;;;;12.63;9.50;;;;;;;10.77;78.07;102021.78;5067528;28;20068;-74
2021/12/22 05:23:56;;;;;;;10.27;6.70;;;;;;;10.80;78.18;102021.00;5066950;28;20451;-73
2021/12/22 05:26:25;;;;;;;7.45;4.45;;;;;;;10.77;78.27;102023.53;5067385;28;20039;-74
2021/12/22 05:28:54;;;;;;;10.45;4.55;;;;;;;10.72;78.46;102018.09;5066484;28;20037;-74
2021/12/22 05:31:22;;;;;;;9.32;4.57;;;;;;;10.70;78.51;102024.16;5054041;28;20041;-74
2021/12/22 05:33:50;;;;;;;7.85;4.20;;;;;;;10.70;78.67;102024.16;5057572;28;20036;-73
2021/12/22 05:36:20;;;;;;;33.28;24.70;;;;;;;10.69;78.67;102028.56;5080272;28;20045;-73
2021/12/22 05:38:48;;;;;;;32.65;22.75;;;;;;;10.68;78.96;102033.78;5068306;28;20047;-73
2021/12/22 05:41:16;;;;;;;17.33;11.57;;;;;;;10.61;79.32;102030.03;5073762;28;20496;-73
2021/12/22 05:43:44;;;;;;;20.45;17.25;;;;;;;10.63;79.58;102030.94;5089078;28;20076;-73
2021/12/22 05:46:12;;;;;;;19.02;13.30;;;;;;;10.69;79.66;102028.56;5087654;28;20120;-72
2021/12/22 05:48:40;;;;;;;30.75;24.92;;;;;;;10.78;79.51;102033.25;5072445;28;20079;-73
2021/12/22 05:51:08;;;;;;;20.80;17.48;;;;;;;10.84;79.50;102036.09;5063084;28;20131;-73
2021/12/22 05:53:37;;;;;;;11.10;6.28;;;;;;;10.91;79.47;102040.75;5073405;28;20071;-73
2021/12/22 05:56:05;;;;;;;15.95;6.47;;;;;;;10.92;79.47;102050.47;5079737;28;20072;-73
2021/12/22 05:58:33;;;;;;;9.70;5.50;;;;;;;10.98;79.33;102050.69;5054294;28;20129;-72
2021/12/22 06:01:00;;;;;;;9.85;5.82;;;;;;;11.04;79.31;102053.53;5070782;28;20036;-74
2021/12/22 06:03:28;;;;;;;8.43;4.60;;;;;;;11.09;79.00;102049.31;5070069;28;20039;-73
2021/12/22 06:05:56;;;;;;;9.18;4.78;;;;;;;11.08;79.24;102050.19;5087010;28;20044;-73
2021/12/22 06:08:23;;;;;;;8.90;4.65;;;;;;;11.04;79.24;102056.19;5067930;28;20466;-73
2021/12/22 06:10:52;;;;;;;11.65;6.35;;;;;;;11.04;79.31;102052.63;5068130;28;20074;-73
2021/12/22 06:13:20;;;;;;;9.68;5.32;;;;;;;11.04;79.50;102058.81;5077824;28;20044;-73
2021/12/22 06:15:48;;;;;;;11.07;5.40;;;;;;;11.07;79.48;102058.94;5086639;28;20040;-73
2021/12/22 06:18:15;;;;;;;9.50;4.40;;;;;;;11.13;79.64;102067.09;5103380;28;20041;-74
2021/12/22 06:20:43;;;;;;;8.32;5.45;;;;;;;11.18;79.55;102049.63;5069925;28;20036;-73
2021/12/22 06:23:11;;;;;;;13.05;4.70;;;;;;;11.28;79.66;102050.84;5103774;28;20051;-73
2021/12/22 06:25:39;;;;;;;16.10;10.85;;;;;;;11.38;79.71;102049.38;5071612;28;20033;-73
2021/12/22 06:28:09;;;;;;;10.43;8.27;;;;;;;11.49;79.90;102050.63;5072005;28;20080;-73
2021/12/22 06:30:37;;;;;;;9.35;4.60;;;;;;;11.56;80.20;102047.34;5103407;28;20514;-74
2021/12/22 06:33:04;;;;;;;5.97;3.85;;;;;;;11.67;80.56;102058.28;5053069;28;20119;-74
2021/12/22 06:35:32;;;;;;;9.40;4.85;;;;;;;11.81;80.77;102059.66;5070886;28;20127;-74
2021/12/22 06:38:00;;;;;;;8.52;4.20;;;;;;;12.06;81.14;102063.94;5067962;28;20048;-73
2021/12/22 06:40:28;;;;;;;7.82;4.47;;;;;;;12.24;81.38;102059.19;5076008;28;20501;-74
2021/12/22 06:42:56;;;;;;;6.32;3.55;;;;;;;12.39;81.35;102067.59;5048650;28;20049;-74
2021/12/22 06:45:25;;;;;;;7.53;3.50;;;;;;;12.49;81.20;102069.66;5083956;28;20048;-74
2021/12/22 06:47:52;;;;;;;6.47;3.17;;;;;;;12.56;80.88;102063.66;5067268;28;20051;-73
2021/12/22 06:50:20;;;;;;;4.90;3.00;;;;;;;12.65;80.77;102058.66;5066031;28;20095;-74
2021/12/22 06:52:48;;;;;;;7.13;2.95;;;;;;;12.72;80.22;102055.31;5066588;28;20528;-74
2021/12/22 06:55:15;;;;;;;7.88;3.63;;;;;;;12.75;79.80;102049.19;5086686;28;20137;-74
2021/12/22 06:57:43;;;;;;;6.70;2.80;;;;;;;12.73;79.49;102051.78;5103323;28;20094;-74
2021/12/22 07:00:14;;;;;;;6.05;2.75;;;;;;;12.74;79.25;102048.28;5076242;28;20121;-73
2021/12/22 07:02:43;;;;;;;7.32;2.88;;;;;;;12.75;79.08;102039.47;5078760;28;20044;-73
2021/12/22 07:05:21;;;;;;;6.85;2.47;;;;;;;12.98;79.58;102045.41;5089881;28;20045;-75
2021/12/22 07:07:48;;;;;;;5.20;2.15;;;;;;;13.16;80.13;102047.66;5086534;28;20121;-74
2021/12/22 07:10:17;;;;;;;4.47;2.17;;;;;;;13.32;80.16;102044.56;5102587;28;20040;-74
2021/12/22 07:12:47;;;;;;;4.35;2.53;;;;;;;13.48;80.44;102052.03;5078175;28;20046;-75
2021/12/22 07:15:15;;;;;;;7.72;2.65;;;;;;;13.65;80.46;102051.53;5088891;28;20044;-74
2021/12/22 07:17:47;;;;;;;3.35;2.05;;;;;;;13.78;80.21;102048.31;5089956;28;20044;-74
2021/12/22 07:20:15;;;;;;;4.13;2.40;;;;;;;13.90;79.30;102045.94;5069126;28;20106;-74
2021/12/22 07:22:43;;;;;;;6.22;2.63;;;;;;;14.01;78.22;102047.06;5052053;28;20054;-74
2021/12/22 07:25:13;;;;;;;5.18;2.70;;;;;;;14.12;77.59;102050.84;5069002;28;20044;-73
2021/12/22 07:27:41;;;;;;;5.10;2.42;;;;;;;14.38;77.44;102051.44;5068974;28;20044;-74
2021/12/22 07:30:10;;;;;;;6.13;2.53;;;;;;;14.70;77.54;102054.75;5051019;28;20528;-74
2021/12/22 07:32:37;;;;;;;5.13;2.35;;;;;;;15.00;77.37;102057.09;5069843;28;20044;-74
2021/12/22 07:35:11;;;;;;;7.85;3.05;;;;;;;15.25;76.90;102058.41;5084316;28;20554;-73
2021/12/22 07:37:47;;;;;;;9.02;3.72;;;;;;;15.47;76.68;102057.91;5069502;28;20033;-74
2021/12/22 07:40:17;;;;;;;5.72;2.53;;;;;;;15.72;75.98;102060.13;5070101;28;20036;-73
2021/12/22 07:42:45;;;;;;;7.10;2.80;;;;;;;15.76;75.21;102061.94;5068550;28;20492;-74
2021/12/22 07:45:14;;;;;;;6.03;2.92;;;;;;;15.63;73.12;102065.28;5067683;28;20144;-74
2021/12/22 07:47:41;;;;;;;8.20;3.95;;;;;;;15.56;70.94;102078.50;5066593;28;20044;-73
2021/12/22 07:50:11;;;;;;;16.05;3.00;;;;;;;15.51;69.48;102071.28;5084406;28;20475;-74
2021/12/22 07:52:41;;;;;;;5.75;3.10;;;;;;;15.38;67.78;102074.63;5067134;28;20037;-73
2021/12/22 07:55:09;;;;;;;6.22;3.22;;;;;;;15.26;66.84;102081.50;5068806;28;20051;-73
2021/12/22 07:57:37;;;;;;;6.00;2.88;;;;;;;15.18;66.33;102094.66;5067375;28;20045;-74
2021/12/22 08:00:06;;;;;;;5.97;2.70;;;;;;;15.09;66.19;102090.09;5067998;28;20051;-73
2021/12/22 08:02:40;;;;;;;5.85;2.97;;;;;;;14.97;65.57;102096.91;5069303;28;20444;-73
2021/12/22 08:05:08;;;;;;;5.28;2.03;;;;;;;14.84;64.31;102087.78;5065839;28;20049;-74
2021/12/22 08:07:37;;;;;;;4.68;2.20;;;;;;;14.76;63.91;102094.75;5050764;28;20087;-74
2021/12/22 08:10:07;;;;;;;6.63;2.60;;;;;;;14.70;64.04;102099.94;5047887;28;20072;-73
2021/12/22 08:12:35;;;;;;;5.32;2.67;;;;;;;14.70;64.35;102098.16;5070287;28;20119;-72
2021/12/22 08:15:04;;;;;;;5.80;2.33;;;;;;;14.73;64.64;102102.66;5080551;28;20033;-72
2021/12/22 08:17:32;;;;;;;5.82;1.80;;;;;;;14.76;64.56;102102.72;5072751;28;20118;-72
2021/12/22 08:20:00;;;;;;;5.90;1.80;;;;;;;14.79;64.05;102083.25;5064619;28;20132;-72
2021/12/22 08:22:29;;;;;;;7.85;1.90;;;;;;;15.04;64.66;102089.06;5063518;28;20037;-72
2021/12/22 08:24:59;;;;;;;3.88;1.63;;;;;;;15.46;65.84;102072.09;5084733;28;20036;-78
2021/12/22 08:27:27;;;;;;;6.93;1.33;;;;;;;15.76;65.71;102069.03;5045473;28;20048;-77
2021/12/22 08:29:55;;;;;;;5.28;1.83;;;;;;;16.01;65.31;102065.91;5049083;28;20106;-78
2021/12/22 08:32:23;;;;;;;5.05;1.50;;;;;;;16.31;64.33;102073.41;5068528;28;20442;-76
2021/12/22 08:34:55;;;;;;;3.90;1.95;;;;;;;16.44;64.46;102069.13;5066235;28;20048;-74
2021/12/22 08:40:14;;;;;;;6.38;1.17;;;;;;;16.71;63.21;102072.16;5060575;28;20484;-73
2021/12/22 08:42:42;;;;;;;4.65;1.80;;;;;;;16.86;62.47;102079.44;5078300;28;20040;-74
2021/12/22 08:45:10;;;;;;;5.05;2.05;;;;;;;16.74;60.97;102082.84;5081935;28;20799;-75
2021/12/22 08:47:39;;;;;;;6.47;3.47;;;;;;;16.61;60.63;102078.25;5067667;28;20036;-73
2021/12/22 08:50:12;;;;;;;5.70;1.55;;;;;;;16.42;59.62;102078.84;5066728;28;20049;-72
2021/12/22 08:52:40;;;;;;;8.05;2.92;;;;;;;16.11;59.28;102082.88;5082243;28;20128;-73
2021/12/22 08:55:10;;;;;;;4.57;2.67;;;;;;;15.95;59.24;102082.66;5079228;28;20044;-73
2021/12/22 08:57:38;;;;;;;5.55;2.10;;;;;;;15.72;58.69;102077.88;5066593;28;20046;-72
2021/12/22 09:00:09;;;;;;;4.18;1.60;;;;;;;15.52;59.07;102078.44;5066570;28;20056;-72
2021/12/22 09:02:37;;;;;;;8.38;3.80;;;;;;;15.51;59.48;102070.38;5063276;28;20037;-70
2021/12/22 09:05:06;;;;;;;6.05;1.77;;;;;;;15.72;59.52;102077.88;5050075;28;20509;-72
2021/12/22 09:07:34;;;;;;;2.30;1.25;;;;;;;15.71;59.49;102068.09;5074621;28;20048;-74
2021/12/22 09:10:02;;;;;;;3.88;2.10;;;;;;;15.87;59.31;102065.69;5087522;28;20044;-72
2021/12/22 09:12:31;;;;;;;3.45;1.35;;;;;;;16.07;58.92;102059.75;5072817;28;20119;-72
2021/12/22 09:14:59;;;;;;;4.15;1.55;;;;;;;16.32;58.76;102053.88;5087144;28;20492;-73
2021/12/22 09:17:27;;;;;;;3.65;1.33;;;;;;;16.58;58.54;102052.41;5051775;28;20040;-72
2021/12/22 09:19:54;;;;;;;2.05;1.10;;;;;;;16.38;57.69;102040.63;5071950;28;20544;-72
2021/12/22 09:22:23;;;;;;;3.45;1.15;;;;;;;16.23;58.05;102038.66;5070438;28;20119;-72
2021/12/22 09:24:51;;;;;;;5.28;1.63;;;;;;;16.18;57.99;102028.81;5083824;28;20434;-73
2021/12/22 09:27:19;;;;;;;4.82;1.13;;;;;;;16.16;58.03;102027.88;5087554;28;20054;-72
2021/12/22 09:29:48;;;;;;;4.40;1.38;;;;;;;16.25;57.53;102025.34;5070636;28;20138;-72
2021/12/22 09:32:17;;;;;;;3.90;1.40;;;;;;;16.34;57.04;102017.47;5071048;28;20397;-72
2021/12/22 09:34:46;;;;;;;3.10;1.40;;;;;;;16.22;57.14;102020.88;5071799;28;20067;-72
2021/12/22 09:37:14;;;;;;;2.78;1.30;;;;;;;16.18;57.07;102010.16;5060675;28;20059;-71
2021/12/22 09:39:42;;;;;;;5.13;1.50;;;;;;;16.22;57.22;102011.97;5061911;28;20047;-70
2021/12/22 09:42:10;;;;;;;8.32;1.70;;;;;;;16.08;57.04;102008.25;5079643;28;20131;-72
2021/12/22 09:44:44;;;;;;;6.22;1.55;;;;;;;15.96;56.51;102000.97;5067433;28;20072;-71
2021/12/22 09:47:15;;;;;;;4.10;1.55;;;;;;;15.84;56.39;101998.16;5069826;28;20051;-70
2021/12/22 09:50:06;;;;;;;6.25;1.52;;;;;;;15.84;57.03;101993.72;5067753;28;20047;-71
2021/12/22 09:52:34;;;;;;;4.88;2.03;;;;;;;15.90;56.74;101985.81;5068038;28;20194;-71
2021/12/22 09:55:02;;;;;;;4.55;2.33;;;;;;;15.90;56.58;101982.25;5079938;28;20028;-71
2021/12/22 09:57:31;;;;;;;3.45;1.48;;;;;;;15.76;56.64;101987.41;5069683;28;20404;-70
2021/12/22 10:00:00;;;;;;;4.50;1.58;;;;;;;15.88;56.29;101984.91;5070349;28;20450;-70
2021/12/22 10:02:31;;;;;;;4.50;1.40;;;;;;;16.17;56.47;101979.94;5071923;28;20047;-71
2021/12/22 10:04:59;;;;;;;4.32;1.45;;;;;;;16.36;55.67;101975.72;5069789;28;20059;-70
2021/12/22 10:07:30;;;;;;;4.25;1.52;;;;;;;16.55;55.98;101977.72;5071788;28;20044;-71
2021/12/22 10:10:07;;;;;;;4.45;1.02;;;;;;;16.88;55.63;101978.97;5070512;28;20059;-71
2021/12/22 10:12:35;;;;;;;4.38;1.20;;;;;;;17.03;53.62;101987.13;5068325;28;20036;-71
2021/12/22 10:15:06;;;;;;;7.28;2.20;;;;;;;16.95;53.95;101976.38;5068456;28;20515;-70
2021/12/22 10:17:38;;;;;;;4.93;1.40;;;;;;;16.65;53.82;101979.66;5052744;28;20037;-71
2021/12/22 10:20:08;;;;;;;3.45;1.30;;;;;;;16.51;53.62;101983.91;5069930;28;20033;-71
2021/12/22 10:22:39;;;;;;;3.50;1.10;;;;;;;16.46;53.58;101977.63;5070416;28;20388;-71
2021/12/22 10:25:13;;;;;;;5.05;1.30;;;;;;;16.31;53.60;101972.13;5068207;28;20044;-70
2021/12/22 10:27:42;;;;;;;4.20;1.63;;;;;;;16.25;53.48;101966.72;5069771;28;20241;-71
2021/12/22 10:30:25;;;;;;;4.18;1.52;;;;;;;16.13;53.46;101969.25;5070664;28;20128;-70
2021/12/22 10:33:06;;;;;;;5.53;1.80;;;;;;;15.87;55.47;101964.50;5069000;28;20048;-70
2021/12/22 10:35:34;;;;;;;7.60;2.38;;;;;;;15.70;56.48;101963.34;5071494;28;20041;-71
2021/12/22 10:38:03;;;;;;;7.43;2.83;;;;;;;15.75;56.64;101958.09;5086672;28;20399;-70
2021/12/22 10:40:33;;;;;;;3.42;1.67;;;;;;;15.66;57.05;101957.97;5085877;28;20082;-71
2021/12/22 10:43:01;;;;;;;3.85;1.27;;;;;;;15.48;57.66;101955.91;5069635;28;20124;-71
2021/12/22 10:45:34;;;;;;;5.00;1.50;;;;;;;15.24;57.98;101955.50;5069085;28;20040;-70
2021/12/22 10:50:56;;;;;;;3.88;1.75;;;;;;;15.04;58.55;101947.22;5070729;28;20052;-74
2021/12/22 10:53:24;;;;;;;4.15;1.98;;;;;;;15.08;58.70;101947.31;5085751;28;20044;-71
2021/12/22 10:55:54;;;;;;;6.03;2.10;;;;;;;15.10;58.96;101950.88;5052705;28;20047;-71
2021/12/22 10:58:25;;;;;;;3.40;1.70;;;;;;;15.02;59.35;101947.22;5069321;28;20496;-71
2021/12/22 11:01:10;;;;;;;4.40;2.08;;;;;;;15.00;59.14;101948.06;5068937;28;20041;-71
2021/12/22 11:04:00;;;;;;;10.15;3.08;;;;;;;14.95;59.06;101945.31;5068855;28;20437;-70
2021/12/22 11:06:30;;;;;;;4.47;2.40;;;;;;;14.90;59.56;101944.31;5070412;28;20139;-70
2021/12/22 11:09:01;;;;;;;3.30;1.90;;;;;;;14.80;60.10;101944.16;5069969;28;20479;-70
2021/12/22 11:11:34;;;;;;;2.95;1.92;;;;;;;14.75;60.04;101939.66;5070551;28;20040;-70
2021/12/22 11:14:07;;;;;;;3.60;2.08;;;;;;;14.70;59.61;101937.81;5068784;28;20044;-69
2021/12/22 11:17:00;;;;;;;4.95;2.30;;;;;;;14.65;59.74;101937.69;5069962;28;20049;-70
2021/12/22 11:19:32;;;;;;;5.32;2.40;;;;;;;14.62;59.78;101928.78;5067942;28;20404;-70
2021/12/22 11:22:06;;;;;;;7.63;2.13;;;;;;;14.62;59.90;101924.38;5067244;28;20131;-70
2021/12/22 11:24:39;;;;;;;4.47;2.10;;;;;;;14.61;60.33;101930.56;5070181;28;20051;-70
2021/12/22 11:27:09;;;;;;;5.32;2.67;;;;;;;14.60;60.62;101917.22;5068230;28;20048;-70
2021/12/22 11:29:40;;;;;;;4.32;2.25;;;;;;;14.61;60.58;101916.38;5071915;28;20584;-69
2021/12/22 11:32:10;;;;;;;4.13;2.13;;;;;;;14.58;60.65;101911.88;5088995;28;20549;-71
2021/12/22 11:34:40;;;;;;;6.60;2.15;;;;;;;14.59;60.71;101905.69;5070446;28;20500;-69
2021/12/22 11:37:09;;;;;;;4.47;1.88;;;;;;;14.61;61.04;101905.72;5068632;28;20535;-69
2021/12/22 11:39:36;;;;;;;4.50;2.40;;;;;;;14.49;61.17;101903.75;5067643;28;20043;-69
2021/12/22 11:42:08;;;;;;;7.65;3.25;;;;;;;14.56;61.14;101902.09;5067501;28;20082;-69
2021/12/22 11:44:38;;;;;;;5.38;2.17;;;;;;;14.66;60.70;101896.06;5068269;28;20045;-69
2021/12/22 11:47:09;;;;;;;5.57;2.00;;;;;;;14.74;60.01;101898.00;5068335;28;20123;-69